Muhlenburg Park, Pennsylvania
Current Conditions -  °F | °C
As of 4:54 AM on Thursday 18 Dec 2014 (Local Time) from KRDG Reporting Station
Scattered Clouds Scattered Clouds  
Wind Chill: 22°   Ceiling: Unl
Heat Index: 34°   Visibility: 10mi
Dew Point: 18°   Wind: 21mph
Humidity: 52%   Direction: 300°WNW
Pressure: 30.01"   Gusts: NA
Location:  40.3999°N, 75.9335°W
Report Text: KRDG 180954Z 30018KT 10SM SCT050 01/M08 A3001 RMK AO2 SLP170 T00111078
Loading
Personal Weather Stations






























Interactive Weather Map New forecast layout! Learn more

10-Day Weather Forecast

Advertisements
Track Severe Weather on mobile